createdAt,value
2023-05-16T00:00:15.947Z,10.03
2023-05-16T00:02:44.009Z,10.06
2023-05-16T00:05:14.619Z,10.35
2023-05-16T00:07:44.398Z,9.95
2023-05-16T00:10:12.472Z,8.94
2023-05-16T00:12:40.381Z,8.69
2023-05-16T00:15:10.381Z,7.92
2023-05-16T00:17:38.528Z,8.46
2023-05-16T00:20:11.168Z,8.18
2023-05-16T00:22:39.129Z,8.29
2023-05-16T00:25:08.767Z,7.98
2023-05-16T00:27:36.823Z,7.83
2023-05-16T00:30:05.451Z,7.86
2023-05-16T00:32:33.896Z,7.76
2023-05-16T00:35:02.575Z,8.16
2023-05-16T00:37:30.520Z,7.88
2023-05-16T00:39:58.370Z,7.66
2023-05-16T00:42:27.235Z,7.72
2023-05-16T00:44:55.070Z,7.88
2023-05-16T00:47:22.929Z,7.55
2023-05-16T00:49:50.940Z,7.60
2023-05-16T00:52:18.915Z,7.51
2023-05-16T00:54:47.216Z,8.19
2023-05-16T00:57:16.319Z,8.24
2023-05-16T00:59:46.756Z,8.42
2023-05-16T01:02:14.976Z,8.64
2023-05-16T01:04:48.336Z,7.84
2023-05-16T01:07:16.318Z,8.71
2023-05-16T01:09:44.241Z,8.05
2023-05-16T01:12:21.743Z,8.25
2023-05-16T01:15:05.076Z,8.37
2023-05-16T01:17:49.260Z,8.23
2023-05-16T01:20:29.253Z,8.27
2023-05-16T01:23:09.225Z,8.27
2023-05-16T01:25:52.478Z,8.45
2023-05-16T01:28:20.565Z,8.53
2023-05-16T01:30:48.409Z,8.54
2023-05-16T01:33:16.247Z,8.26
2023-05-16T01:35:53.385Z,8.85
2023-05-16T01:38:45.584Z,8.48
2023-05-16T01:41:19.466Z,8.76
2023-05-16T01:43:52.775Z,8.86
2023-05-16T01:46:26.352Z,8.62
2023-05-16T01:49:02.592Z,9.02
2023-05-16T01:51:33.793Z,9.40
2023-05-16T01:54:06.656Z,10.22
2023-05-16T01:56:37.722Z,11.18
2023-05-16T01:59:08.444Z,10.60
2023-05-16T02:01:36.604Z,10.60
2023-05-16T02:04:05.943Z,11.57
2023-05-16T02:06:33.966Z,12.33
2023-05-16T02:09:01.936Z,12.90
2023-05-16T02:11:29.829Z,14.18
2023-05-16T02:13:58.400Z,15.00
2023-05-16T02:16:26.501Z,15.48
2023-05-16T02:18:54.520Z,16.14
2023-05-16T02:21:22.455Z,16.22
2023-05-16T02:23:50.343Z,16.49
2023-05-16T02:26:18.222Z,16.77
2023-05-16T02:28:46.574Z,17.16
2023-05-16T02:31:14.509Z,16.46
2023-05-16T02:33:42.772Z,16.89
2023-05-16T02:36:11.140Z,17.18
2023-05-16T02:38:39.207Z,16.46
2023-05-16T02:41:07.073Z,16.14
2023-05-16T02:43:35.050Z,16.48
2023-05-16T02:46:30.954Z,16.57
2023-05-16T02:48:59.746Z,17.06
2023-05-16T02:51:28.966Z,16.36
2023-05-16T02:53:57.297Z,16.54
2023-05-16T02:56:26.263Z,16.64
2023-05-16T02:58:54.891Z,17.10
2023-05-16T03:01:23.157Z,17.80
2023-05-16T03:03:51.265Z,19.16
2023-05-16T03:06:19.469Z,19.96
2023-05-16T03:08:47.350Z,20.04
2023-05-16T03:11:17.423Z,19.48
2023-05-16T03:13:45.302Z,20.74
2023-05-16T03:16:13.283Z,21.55
2023-05-16T03:18:41.432Z,22.76
2023-05-16T03:21:09.636Z,26.14
2023-05-16T03:23:38.171Z,28.81
2023-05-16T03:26:06.419Z,30.49
2023-05-16T03:28:34.453Z,29.98
2023-05-16T03:31:02.606Z,27.28
2023-05-16T03:33:30.578Z,25.49
2023-05-16T03:35:58.517Z,20.59
2023-05-16T03:38:26.437Z,18.21
2023-05-16T03:40:54.331Z,18.21
2023-05-16T03:43:22.422Z,18.39
2023-05-16T03:45:50.509Z,18.59
2023-05-16T03:48:18.454Z,18.65
2023-05-16T03:50:46.324Z,20.53
2023-05-16T03:53:14.203Z,20.59
2023-05-16T03:55:42.216Z,21.14
2023-05-16T03:58:10.120Z,22.55
2023-05-16T04:00:38.289Z,22.67
2023-05-16T04:03:06.317Z,22.41
2023-05-16T04:05:35.047Z,22.21
2023-05-16T04:08:03.086Z,22.62
2023-05-16T04:10:32.548Z,22.34
2023-05-16T04:13:00.502Z,22.53
2023-05-16T04:15:28.644Z,23.23
2023-05-16T04:17:56.916Z,24.17
2023-05-16T04:20:24.964Z,24.67
2023-05-16T04:22:53.359Z,21.93
2023-05-16T04:25:21.266Z,21.20
2023-05-16T04:27:49.115Z,20.72
2023-05-16T04:30:17.537Z,20.93
2023-05-16T04:32:45.476Z,19.42
2023-05-16T04:35:13.748Z,20.02
2023-05-16T04:37:41.905Z,19.72
2023-05-16T04:40:10.070Z,18.68
2023-05-16T04:42:38.184Z,18.02
2023-05-16T04:45:06.859Z,17.51
2023-05-16T04:47:34.730Z,16.83
2023-05-16T04:50:03.396Z,16.67
2023-05-16T04:52:31.289Z,16.09
2023-05-16T04:55:00.520Z,16.10
2023-05-16T04:57:28.463Z,17.15
2023-05-16T04:59:56.357Z,17.64
2023-05-16T05:02:24.569Z,18.43
2023-05-16T05:04:52.593Z,19.17
2023-05-16T05:07:20.761Z,19.35
2023-05-16T05:09:48.867Z,20.18
2023-05-16T05:12:16.998Z,20.70
2023-05-16T05:14:44.876Z,20.57
2023-05-16T05:17:12.773Z,21.71
2023-05-16T05:19:40.771Z,22.26
2023-05-16T05:22:08.908Z,23.44
2023-05-16T05:24:36.973Z,24.11
2023-05-16T05:27:05.584Z,23.77
2023-05-16T05:29:33.926Z,24.44
2023-05-16T05:32:01.969Z,23.46
2023-05-16T05:34:30.810Z,24.24
2023-05-16T05:36:58.822Z,23.71
2023-05-16T05:39:26.717Z,21.08
2023-05-16T05:41:54.689Z,19.05
2023-05-16T05:44:22.771Z,22.02
2023-05-16T05:46:51.313Z,21.28
2023-05-16T05:49:19.464Z,21.96
2023-05-16T05:51:47.516Z,22.73
2023-05-16T05:54:15.692Z,22.14
2023-05-16T05:56:43.830Z,22.93
2023-05-16T05:59:12.097Z,26.32
2023-05-16T06:01:40.210Z,23.49
2023-05-16T06:04:08.133Z,23.92
2023-05-16T06:06:36.462Z,24.04
2023-05-16T06:09:04.333Z,24.99
2023-05-16T06:11:32.334Z,25.42
2023-05-16T06:14:00.225Z,26.28
2023-05-16T06:16:28.222Z,25.27
2023-05-16T06:18:56.235Z,24.74
2023-05-16T06:21:24.373Z,24.33
2023-05-16T06:23:52.305Z,27.29
2023-05-16T06:26:20.486Z,28.45
2023-05-16T06:28:48.578Z,28.30
2023-05-16T06:31:16.551Z,28.79
2023-05-16T06:33:44.957Z,31.25
2023-05-16T06:36:12.813Z,29.67
2023-05-16T06:38:40.768Z,28.79
2023-05-16T06:41:08.843Z,27.94
2023-05-16T06:43:36.786Z,27.96
2023-05-16T06:46:04.920Z,28.77
2023-05-16T06:48:32.892Z,28.15
2023-05-16T06:51:00.945Z,27.86
2023-05-16T06:53:29.552Z,28.93
2023-05-16T06:55:57.483Z,27.66
2023-05-16T06:58:25.598Z,27.82
2023-05-16T07:00:53.783Z,27.52
2023-05-16T07:03:22.170Z,28.82
2023-05-16T07:05:52.905Z,27.91
2023-05-16T07:08:20.844Z,29.43
2023-05-16T07:10:48.789Z,29.88
2023-05-16T07:13:16.707Z,29.84
2023-05-16T07:15:44.608Z,30.16
2023-05-16T07:18:12.570Z,29.89
2023-05-16T07:20:41.009Z,31.59
2023-05-16T07:23:08.902Z,32.22
2023-05-16T07:25:36.889Z,33.56
2023-05-16T07:28:04.922Z,37.05
2023-05-16T07:30:32.844Z,43.07
2023-05-16T07:33:00.910Z,52.70
2023-05-16T07:35:29.453Z,51.31
2023-05-16T07:37:57.789Z,51.99
2023-05-16T07:40:28.439Z,54.63
2023-05-16T07:42:56.434Z,55.45
2023-05-16T07:45:24.538Z,60.29
2023-05-16T07:47:52.552Z,61.96
2023-05-16T07:50:21.006Z,59.53
2023-05-16T07:52:48.926Z,56.92
2023-05-16T07:55:16.932Z,54.58
2023-05-16T07:57:45.006Z,56.24
2023-05-16T08:00:13.467Z,55.39
2023-05-16T08:02:41.804Z,51.91
2023-05-16T08:05:10.281Z,49.31
2023-05-16T08:07:38.224Z,47.31
2023-05-16T08:10:06.719Z,47.56
2023-05-16T08:12:34.673Z,43.12
2023-05-16T08:15:03.627Z,42.48
2023-05-16T08:17:31.822Z,40.81
2023-05-16T08:20:01.997Z,38.59
2023-05-16T08:22:30.015Z,38.61
2023-05-16T08:24:57.981Z,36.20
2023-05-16T08:27:29.533Z,33.85
2023-05-16T08:29:57.449Z,34.08
2023-05-16T08:32:25.653Z,33.03
2023-05-16T08:34:53.633Z,29.15
2023-05-16T08:37:21.530Z,26.91
2023-05-16T08:39:49.460Z,22.92
2023-05-16T08:42:17.688Z,22.28
2023-05-16T08:44:45.638Z,20.92
2023-05-16T08:47:19.034Z,20.24
2023-05-16T08:49:51.949Z,19.19
2023-05-16T08:52:21.558Z,18.67
2023-05-16T08:55:05.734Z,19.36
2023-05-16T08:57:38.915Z,18.26
2023-05-16T09:00:11.808Z,18.60
2023-05-16T09:02:41.691Z,17.62
2023-05-16T09:05:12.732Z,18.30
2023-05-16T09:07:41.820Z,17.81
2023-05-16T09:10:10.667Z,17.98
2023-05-16T09:12:40.952Z,17.87
2023-05-16T09:15:10.963Z,17.87
2023-05-16T09:17:45.155Z,18.44
2023-05-16T09:20:16.212Z,19.49
2023-05-16T09:23:10.452Z,21.38
2023-05-16T09:25:40.556Z,25.05
2023-05-16T09:28:11.666Z,26.14
2023-05-16T09:30:39.665Z,26.32
2023-05-16T09:33:08.104Z,27.43
2023-05-16T09:35:44.939Z,27.03
2023-05-16T09:38:16.838Z,29.27
2023-05-16T09:40:45.754Z,30.09
2023-05-16T09:43:17.282Z,31.50
2023-05-16T09:45:48.001Z,35.72
2023-05-16T09:48:17.208Z,36.45
2023-05-16T09:50:53.195Z,37.31
2023-05-16T09:53:29.393Z,37.68
2023-05-16T09:56:04.878Z,38.12
2023-05-16T09:58:35.065Z,38.35
2023-05-16T10:01:03.832Z,41.83
2023-05-16T10:03:35.027Z,45.58
2023-05-16T10:06:05.872Z,46.75
2023-05-16T10:08:38.559Z,47.14
2023-05-16T10:11:06.935Z,42.62
2023-05-16T10:13:36.546Z,39.37
2023-05-16T10:16:12.794Z,40.78
2023-05-16T10:18:42.418Z,36.90
2023-05-16T10:21:15.280Z,37.18
2023-05-16T10:23:44.388Z,35.31
2023-05-16T10:26:14.848Z,33.85
2023-05-16T10:28:43.084Z,33.56
2023-05-16T10:31:11.743Z,33.23
2023-05-16T10:33:40.232Z,33.13
2023-05-16T10:36:10.074Z,30.76
2023-05-16T10:38:39.020Z,28.51
2023-05-16T10:41:07.820Z,27.28
2023-05-16T10:43:36.866Z,25.68
2023-05-16T10:46:07.756Z,24.61
2023-05-16T10:48:38.852Z,24.32
2023-05-16T10:51:38.304Z,24.28
2023-05-16T10:54:11.323Z,24.59
2023-05-16T10:56:39.567Z,25.16
2023-05-16T10:59:24.922Z,25.23
2023-05-16T11:01:55.441Z,25.52
2023-05-16T11:04:23.418Z,25.89
2023-05-16T11:06:53.524Z,25.41
2023-05-16T11:09:28.121Z,25.64
2023-05-16T11:11:59.586Z,25.44
2023-05-16T11:14:29.466Z,25.82
2023-05-16T11:17:11.979Z,26.71
2023-05-16T11:19:48.294Z,27.98
2023-05-16T11:22:19.207Z,28.45
2023-05-16T11:25:05.819Z,28.59
2023-05-16T11:27:36.317Z,26.88
2023-05-16T11:30:07.373Z,26.61
2023-05-16T11:32:37.997Z,26.32
2023-05-16T11:35:09.023Z,27.16
2023-05-16T11:37:37.865Z,26.53
2023-05-16T11:40:08.646Z,27.10
2023-05-16T11:42:50.548Z,27.80
2023-05-16T11:45:22.394Z,28.68
2023-05-16T11:47:50.694Z,29.68
2023-05-16T11:50:20.826Z,32.54
2023-05-16T11:52:53.848Z,34.56
2023-05-16T11:55:41.135Z,34.13
2023-05-16T11:58:10.494Z,34.92
2023-05-16T12:00:48.175Z,34.82
2023-05-16T12:03:16.445Z,35.54
2023-05-16T12:05:55.109Z,34.65
2023-05-16T12:08:24.597Z,34.05
2023-05-16T12:10:53.750Z,34.56
2023-05-16T12:13:24.041Z,33.71
2023-05-16T12:15:55.463Z,34.69
2023-05-16T12:18:25.106Z,35.19
2023-05-16T12:20:53.700Z,34.95
2023-05-16T12:23:21.629Z,35.82
2023-05-16T12:25:50.028Z,35.98
2023-05-16T12:28:17.924Z,33.35
2023-05-16T12:30:48.065Z,32.81
2023-05-16T12:33:17.148Z,34.12
2023-05-16T12:35:47.324Z,31.50
2023-05-16T12:38:17.500Z,28.52
2023-05-16T12:40:48.482Z,28.59
2023-05-16T12:43:19.330Z,29.43
2023-05-16T12:45:52.988Z,28.52
2023-05-16T12:48:21.738Z,28.82
2023-05-16T12:50:49.764Z,27.87
2023-05-16T12:53:19.144Z,27.01
2023-05-16T12:55:47.140Z,26.75
2023-05-16T12:58:15.155Z,26.61
2023-05-16T13:00:43.321Z,25.14
2023-05-16T13:03:12.388Z,25.46
2023-05-16T13:05:41.104Z,27.12
2023-05-16T13:08:09.351Z,28.55
2023-05-16T13:10:37.315Z,23.69
2023-05-16T13:13:05.373Z,23.08
2023-05-16T13:15:33.398Z,21.60
2023-05-16T13:18:03.480Z,19.52
2023-05-16T13:20:31.467Z,19.46
2023-05-16T13:22:59.390Z,18.31
2023-05-16T13:25:27.796Z,19.49
2023-05-16T13:27:55.794Z,19.03
2023-05-16T13:30:24.718Z,18.49
2023-05-16T13:32:52.849Z,18.44
2023-05-16T13:35:21.918Z,18.68
2023-05-16T13:37:50.071Z,19.35
2023-05-16T13:40:17.949Z,19.55
2023-05-16T13:42:45.849Z,20.03
2023-05-16T13:45:13.820Z,20.54
2023-05-16T13:47:41.833Z,21.48
2023-05-16T13:50:10.515Z,23.70
2023-05-16T13:52:38.817Z,23.06
2023-05-16T13:55:08.015Z,24.36
2023-05-16T13:57:36.252Z,23.30
2023-05-16T14:02:44.445Z,23.76
2023-05-16T14:05:12.548Z,23.52
2023-05-16T14:07:41.141Z,22.70
2023-05-16T14:10:09.578Z,20.56
2023-05-16T14:12:38.127Z,19.13
2023-05-16T14:15:07.161Z,18.09
2023-05-16T14:17:35.300Z,18.23
2023-05-16T14:20:06.052Z,17.86
2023-05-16T14:22:34.022Z,18.57
2023-05-16T14:25:01.974Z,17.67
2023-05-16T14:27:29.879Z,18.28
2023-05-16T14:29:58.901Z,19.31
2023-05-16T14:32:27.215Z,19.55
2023-05-16T14:34:55.297Z,20.15
2023-05-16T14:37:23.227Z,19.91
2023-05-16T14:39:52.937Z,20.12
2023-05-16T14:42:21.511Z,19.71
2023-05-16T14:44:49.738Z,18.99
2023-05-16T14:47:17.835Z,17.45
2023-05-16T14:49:45.838Z,17.32
2023-05-16T14:52:14.061Z,17.31
2023-05-16T14:54:41.973Z,16.73
2023-05-16T14:57:09.885Z,16.65
2023-05-16T14:59:37.843Z,17.60
2023-05-16T15:02:06.580Z,18.22
2023-05-16T15:04:34.678Z,18.89
2023-05-16T15:07:02.630Z,18.66
2023-05-16T15:09:31.279Z,18.29
2023-05-16T15:11:59.193Z,18.01
2023-05-16T15:14:27.282Z,17.72
2023-05-16T15:16:55.222Z,16.84
2023-05-16T15:19:23.355Z,16.68
2023-05-16T15:21:51.378Z,16.93
2023-05-16T15:24:19.287Z,17.05
2023-05-16T15:26:47.425Z,17.02
2023-05-16T15:29:15.398Z,16.41
2023-05-16T15:31:43.370Z,16.76
2023-05-16T15:34:12.133Z,16.67
2023-05-16T15:36:40.064Z,17.19
2023-05-16T15:39:08.053Z,16.98
2023-05-16T15:41:50.683Z,17.21
2023-05-16T15:44:24.895Z,18.40
2023-05-16T15:46:52.788Z,20.07
2023-05-16T15:49:21.441Z,20.19
2023-05-16T15:51:51.001Z,20.61
2023-05-16T15:54:19.021Z,20.74
2023-05-16T15:56:47.356Z,20.99
2023-05-16T15:59:15.610Z,21.31
2023-05-16T16:01:44.098Z,21.11
2023-05-16T16:04:12.200Z,20.82
2023-05-16T16:06:40.132Z,21.85
2023-05-16T16:09:08.240Z,21.25
2023-05-16T16:11:36.503Z,21.57
2023-05-16T16:14:04.620Z,22.30
2023-05-16T16:16:32.786Z,22.56
2023-05-16T16:19:00.823Z,23.62
2023-05-16T16:21:29.072Z,24.31
2023-05-16T16:23:57.119Z,24.19
2023-05-16T16:26:25.794Z,23.97
2023-05-16T16:28:53.715Z,24.01
2023-05-16T16:31:21.723Z,24.53
2023-05-16T16:33:49.655Z,25.06
2023-05-16T16:36:18.133Z,24.85
2023-05-16T16:38:46.091Z,23.81
2023-05-16T16:41:17.368Z,24.00
2023-05-16T16:43:45.360Z,22.96
2023-05-16T16:46:13.539Z,23.00
2023-05-16T16:48:41.489Z,23.94
2023-05-16T16:51:09.407Z,23.12
2023-05-16T16:53:38.026Z,21.86
2023-05-16T16:56:06.439Z,21.25
2023-05-16T16:58:34.370Z,20.93
2023-05-16T17:01:02.473Z,20.97
2023-05-16T17:03:30.420Z,20.76
2023-05-16T17:05:58.880Z,21.21
2023-05-16T17:08:27.327Z,20.00
2023-05-16T17:10:55.253Z,18.96
2023-05-16T17:13:23.487Z,18.61
2023-05-16T17:15:52.173Z,18.93
2023-05-16T17:18:21.538Z,18.91
2023-05-16T17:20:49.523Z,18.99
2023-05-16T17:23:17.390Z,19.26
2023-05-16T17:25:45.643Z,19.49
2023-05-16T17:28:13.992Z,18.47
2023-05-16T17:30:41.904Z,17.42
2023-05-16T17:33:09.958Z,17.14
2023-05-16T17:35:38.010Z,17.04
2023-05-16T17:38:05.907Z,16.92
2023-05-16T17:40:33.870Z,15.93
2023-05-16T17:43:01.725Z,15.82
2023-05-16T17:45:29.937Z,15.33
2023-05-16T17:47:58.209Z,16.05
2023-05-16T17:50:26.217Z,15.83
2023-05-16T17:52:54.096Z,14.95
2023-05-16T17:55:23.279Z,15.26
2023-05-16T17:57:51.348Z,14.74
2023-05-16T18:00:19.513Z,13.91
2023-05-16T18:02:47.503Z,14.11
2023-05-16T18:05:16.559Z,14.65
2023-05-16T18:07:44.545Z,14.78
2023-05-16T18:10:13.562Z,14.24
2023-05-16T18:12:44.293Z,14.72
2023-05-16T18:15:12.700Z,14.18
2023-05-16T18:17:40.725Z,14.90
2023-05-16T18:20:12.120Z,14.83
2023-05-16T18:22:41.178Z,14.67
2023-05-16T18:25:10.597Z,14.80
2023-05-16T18:27:38.595Z,14.66
2023-05-16T18:30:07.244Z,14.28
2023-05-16T18:32:36.618Z,14.36
2023-05-16T18:35:04.971Z,14.77
2023-05-16T18:37:33.092Z,14.78
2023-05-16T18:40:01.480Z,14.68
2023-05-16T18:42:29.901Z,14.30
2023-05-16T18:44:57.874Z,14.51
2023-05-16T18:47:26.167Z,14.60
2023-05-16T18:49:54.385Z,15.18
2023-05-16T18:52:22.366Z,15.00
2023-05-16T18:54:50.729Z,14.81
2023-05-16T18:57:18.664Z,15.11
2023-05-16T18:59:47.006Z,14.93
2023-05-16T19:02:14.916Z,15.68
2023-05-16T19:04:42.959Z,15.26
2023-05-16T19:07:14.287Z,14.90
2023-05-16T19:09:42.689Z,14.56
2023-05-16T19:12:10.862Z,13.81
2023-05-16T19:14:39.061Z,13.03
2023-05-16T19:17:07.319Z,13.22
2023-05-16T19:19:35.335Z,13.34
2023-05-16T19:22:03.648Z,13.53
2023-05-16T19:24:31.674Z,13.53
2023-05-16T19:26:59.689Z,14.18
2023-05-16T19:29:27.627Z,13.53
2023-05-16T19:31:55.991Z,13.67
2023-05-16T19:34:26.553Z,14.99
2023-05-16T19:36:54.796Z,16.96
2023-05-16T19:39:22.740Z,31.04
2023-05-16T19:41:52.297Z,21.35
2023-05-16T19:44:20.521Z,14.37
2023-05-16T19:46:48.555Z,14.17
2023-05-16T19:49:18.898Z,14.63
2023-05-16T19:51:48.309Z,14.20
2023-05-16T19:54:16.426Z,14.23
2023-05-16T19:56:44.330Z,14.08
2023-05-16T19:59:12.282Z,14.10
2023-05-16T20:04:09.456Z,14.14
2023-05-16T20:06:37.710Z,14.71
2023-05-16T20:09:06.234Z,15.43
2023-05-16T20:11:34.335Z,14.83
2023-05-16T20:14:02.271Z,13.97
2023-05-16T20:16:30.342Z,14.40
2023-05-16T20:18:58.334Z,14.94
2023-05-16T20:21:26.333Z,14.94
2023-05-16T20:23:54.201Z,14.49
2023-05-16T20:26:22.423Z,15.20
2023-05-16T20:28:50.332Z,15.06
2023-05-16T20:31:18.278Z,13.06
2023-05-16T20:33:46.964Z,12.05
2023-05-16T20:36:14.990Z,11.80
2023-05-16T20:38:42.914Z,12.93
2023-05-16T20:41:11.012Z,13.45
2023-05-16T20:43:38.915Z,13.85
2023-05-16T20:46:06.911Z,13.15
2023-05-16T20:48:34.922Z,11.74
2023-05-16T20:51:02.932Z,9.93
2023-05-16T20:53:30.921Z,9.15
2023-05-16T20:55:58.802Z,9.47
2023-05-16T20:58:26.767Z,9.45
2023-05-16T21:00:54.711Z,9.40
2023-05-16T21:03:22.590Z,9.35
2023-05-16T21:05:50.566Z,9.42
2023-05-16T21:08:18.613Z,8.93
2023-05-16T21:10:46.637Z,9.29
2023-05-16T21:13:14.633Z,9.42
2023-05-16T21:15:42.516Z,8.51
2023-05-16T21:18:10.494Z,7.74
2023-05-16T21:20:38.506Z,7.32
2023-05-16T21:23:06.371Z,7.24
2023-05-16T21:25:34.304Z,7.34
2023-05-16T21:28:02.392Z,7.62
2023-05-16T21:30:30.305Z,7.78
2023-05-16T21:32:58.333Z,7.18
2023-05-16T21:35:26.845Z,6.73
2023-05-16T21:37:54.848Z,6.34
2023-05-16T21:40:25.130Z,6.22
2023-05-16T21:42:53.384Z,5.84
2023-05-16T21:45:21.702Z,5.75
2023-05-16T21:47:49.837Z,6.01
2023-05-16T21:50:18.372Z,5.34
2023-05-16T21:52:46.355Z,5.47
2023-05-16T21:55:14.385Z,5.43
2023-05-16T21:57:42.516Z,5.51
2023-05-16T22:00:11.095Z,5.36
2023-05-16T22:02:40.622Z,5.25
2023-05-16T22:05:09.691Z,4.70
2023-05-16T22:07:37.904Z,4.77
2023-05-16T22:10:07.390Z,4.80
2023-05-16T22:12:35.701Z,4.68
2023-05-16T22:15:04.694Z,4.66
2023-05-16T22:17:33.301Z,4.60
2023-05-16T22:20:02.299Z,4.49
2023-05-16T22:22:30.229Z,4.30
2023-05-16T22:24:58.114Z,4.57
2023-05-16T22:27:26.029Z,4.56
2023-05-16T22:29:53.899Z,4.55
2023-05-16T22:32:22.354Z,4.81
2023-05-16T22:34:50.207Z,4.78
2023-05-16T22:37:18.124Z,5.48
2023-05-16T22:39:46.145Z,5.47
2023-05-16T22:42:14.047Z,8.63
2023-05-16T22:44:41.973Z,5.43
2023-05-16T22:47:09.831Z,5.73
2023-05-16T22:49:37.687Z,5.93
2023-05-16T22:52:05.895Z,5.73
2023-05-16T22:54:33.794Z,5.91
2023-05-16T22:57:01.684Z,5.89
2023-05-16T22:59:29.740Z,5.87
2023-05-16T23:01:57.846Z,5.87
2023-05-16T23:04:26.025Z,6.07
2023-05-16T23:06:54.047Z,5.90
2023-05-16T23:09:21.896Z,5.93
2023-05-16T23:11:49.804Z,6.46
2023-05-16T23:14:17.716Z,6.28
2023-05-16T23:16:45.647Z,6.57
2023-05-16T23:19:13.702Z,6.15
2023-05-16T23:21:41.622Z,6.27
2023-05-16T23:24:09.502Z,6.34
2023-05-16T23:26:37.673Z,6.43
2023-05-16T23:29:06.217Z,5.97
2023-05-16T23:31:34.078Z,6.00
2023-05-16T23:34:02.133Z,6.42
2023-05-16T23:36:30.134Z,7.46
2023-05-16T23:38:58.070Z,6.80
2023-05-16T23:41:25.957Z,6.66
2023-05-16T23:43:53.930Z,6.93
2023-05-16T23:46:22.213Z,7.35
2023-05-16T23:48:50.372Z,7.28
2023-05-16T23:51:18.505Z,7.49
2023-05-16T23:53:46.423Z,7.68
2023-05-16T23:56:14.332Z,7.71
2023-05-16T23:58:42.468Z,7.83
